Time;durP1;ratioP1;P1;durP2;ratioP2;P2;SDS_P1;SDS_P2;PMS_P1;PMS_P2;Temp;Humidity;BMP_temperature;BMP_pressure;BME280_temperature;BME280_humidity;BME280_pressure;Samples;Min_cycle;Max_cycle;Signal;HPM_P1;HPM_P2
2021/05/19 00:00:00;;;;;;;19.02;15.23;;;7.60;99.90;;;;;;4974197;28;20043;-60
2021/05/19 00:02:27;;;;;;;23.88;15.88;;;7.60;99.90;;;;;;4984688;28;20054;-60
2021/05/19 00:04:52;;;;;;;24.45;17.52;;;7.50;99.90;;;;;;4984153;28;20066;-60
2021/05/19 00:07:18;;;;;;;24.08;17.15;;;7.50;99.90;;;;;;4984035;28;20126;-61
2021/05/19 00:09:44;;;;;;;26.45;17.83;;;7.40;99.90;;;;;;4977007;28;20039;-60
2021/05/19 00:12:10;;;;;;;22.25;17.02;;;7.40;99.90;;;;;;4982288;28;20043;-60
2021/05/19 00:14:36;;;;;;;24.35;17.40;;;7.30;99.90;;;;;;4984186;28;20047;-60
2021/05/19 00:17:02;;;;;;;24.75;17.80;;;7.20;99.90;;;;;;4983089;28;20061;-60
2021/05/19 00:19:28;;;;;;;24.30;18.08;;;7.20;99.90;;;;;;4984521;28;20038;-61
2021/05/19 00:21:53;;;;;;;28.98;18.33;;;7.20;99.90;;;;;;4980962;28;20047;-61
2021/05/19 00:24:19;;;;;;;28.17;18.13;;;7.10;99.90;;;;;;4984239;28;20043;-61
2021/05/19 00:26:45;;;;;;;27.23;19.10;;;7.00;99.90;;;;;;4984484;28;20047;-61
2021/05/19 00:29:15;;;;;;;30.77;22.10;;;7.00;99.90;;;;;;4984376;28;20038;-62
2021/05/19 00:31:42;;;;;;;35.67;21.38;;;7.00;99.90;;;;;;4982880;28;20106;-62
2021/05/19 00:34:09;;;;;;;35.78;24.45;;;7.00;99.90;;;;;;4980951;28;20053;-60
2021/05/19 00:36:35;;;;;;;33.05;22.73;;;7.00;99.90;;;;;;4984492;28;20047;-61
2021/05/19 00:39:04;;;;;;;35.30;22.40;;;7.00;99.90;;;;;;4982387;28;20047;-61
2021/05/19 00:41:29;;;;;;;;;;;7.00;99.90;;;;;;4987810;28;20035;-61
2021/05/19 00:44:10;;;;;;;33.67;23.23;;;6.90;99.90;;;;;;4987337;28;19945;-61
2021/05/19 00:46:37;;;;;;;33.67;23.38;;;6.90;99.90;;;;;;4987613;28;20043;-61
2021/05/19 00:49:04;;;;;;;36.30;24.42;;;6.80;99.90;;;;;;4986538;28;20042;-61
2021/05/19 00:51:30;;;;;;;40.83;24.70;;;6.80;99.90;;;;;;4987490;28;20170;-61
2021/05/19 00:53:56;;;;;;;46.35;26.45;;;6.80;99.90;;;;;;4987026;28;20078;-61
2021/05/19 00:56:24;;;;;;;37.15;26.48;;;6.80;99.90;;;;;;4987249;28;20050;-61
2021/05/19 00:58:54;;;;;;;43.83;26.52;;;6.80;99.90;;;;;;4987247;28;20049;-61
2021/05/19 01:01:19;;;;;;;53.15;31.02;;;6.80;99.90;;;;;;4987068;28;20535;-61
2021/05/19 01:03:45;;;;;;;40.22;26.48;;;6.80;99.90;;;;;;4986349;28;20038;-62
2021/05/19 01:06:17;;;;;;;41.53;25.80;;;6.80;99.90;;;;;;4987545;28;20066;-61
2021/05/19 01:11:30;;;;;;;43.30;25.67;;;6.90;99.90;;;;;;4986485;28;20039;-60
2021/05/19 01:13:57;;;;;;;33.25;23.90;;;6.90;99.90;;;;;;4986966;28;20061;-60
2021/05/19 01:16:23;;;;;;;40.40;22.85;;;6.90;99.90;;;;;;4986958;28;20107;-61
2021/05/19 01:18:49;;;;;;;30.92;20.13;;;6.80;99.90;;;;;;4987194;28;20038;-61
2021/05/19 01:21:18;;;;;;;33.95;22.02;;;6.80;99.90;;;;;;4986285;28;20450;-61
2021/05/19 01:23:44;;;;;;;31.77;21.20;;;6.80;99.90;;;;;;4986145;28;20127;-62
2021/05/19 01:26:11;;;;;;;36.55;22.27;;;6.80;99.90;;;;;;4987031;28;20085;-60
2021/05/19 01:28:40;;;;;;;34.28;21.08;;;6.80;99.90;;;;;;4976860;28;20043;-60
2021/05/19 01:31:08;;;;;;;30.23;20.10;;;6.70;99.90;;;;;;4986580;28;20074;-60
2021/05/19 01:33:34;;;;;;;32.17;20.67;;;6.70;99.90;;;;;;4983359;28;20067;-61
2021/05/19 01:36:00;;;;;;;38.58;21.73;;;6.60;99.90;;;;;;4975940;28;20102;-60
2021/05/19 01:38:25;;;;;;;35.00;21.65;;;6.70;99.90;;;;;;4979994;28;20051;-60
2021/05/19 01:40:52;;;;;;;32.78;21.13;;;6.60;99.90;;;;;;4985919;28;20047;-60
2021/05/19 01:43:18;;;;;;;36.45;21.05;;;6.70;99.90;;;;;;4982997;28;20130;-61
2021/05/19 01:45:44;;;;;;;32.83;20.63;;;6.60;99.90;;;;;;4985699;28;20057;-61
2021/05/19 01:48:15;;;;;;;29.52;18.23;;;6.60;99.90;;;;;;4986435;28;20102;-61
2021/05/19 01:50:42;;;;;;;30.25;18.38;;;6.60;99.90;;;;;;4985681;28;20098;-61
2021/05/19 01:53:08;;;;;;;31.30;19.85;;;6.60;99.90;;;;;;4980111;28;20503;-61
2021/05/19 01:55:34;;;;;;;33.83;18.23;;;6.50;99.90;;;;;;4982122;28;20049;-61
2021/05/19 01:57:59;;;;;;;47.70;21.40;;;6.40;99.90;;;;;;4975283;28;20570;-60
2021/05/19 02:00:27;;;;;;;32.30;19.88;;;6.30;99.90;;;;;;4986487;28;20110;-61
2021/05/19 02:02:59;;;;;;;41.67;23.95;;;6.30;99.90;;;;;;4985763;28;20133;-60
2021/05/19 02:05:27;;;;;;;33.30;21.77;;;6.30;99.90;;;;;;4986528;28;20179;-60
2021/05/19 02:07:53;;;;;;;32.72;21.70;;;6.50;99.90;;;;;;4986091;28;20055;-62
2021/05/19 02:10:20;;;;;;;32.72;21.85;;;6.50;99.90;;;;;;4985006;28;20049;-60
2021/05/19 02:12:46;;;;;;;42.90;22.52;;;6.50;99.90;;;;;;4985171;28;20039;-60
2021/05/19 02:15:13;;;;;;;35.65;21.88;;;6.40;99.90;;;;;;4986140;28;20053;-61
2021/05/19 02:17:39;;;;;;;42.05;23.27;;;6.30;99.90;;;;;;4974010;28;20051;-60
2021/05/19 02:20:11;;;;;;;40.50;23.60;;;6.30;99.90;;;;;;4985818;28;20118;-61
2021/05/19 02:22:37;;;;;;;36.55;22.00;;;6.20;99.90;;;;;;4972864;28;20043;-60
2021/05/19 02:25:05;;;;;;;42.70;22.60;;;6.20;99.90;;;;;;4979735;28;20115;-61
2021/05/19 02:27:32;;;;;;;35.25;21.75;;;6.20;99.90;;;;;;4985510;28;20074;-61
2021/05/19 02:29:58;;;;;;;45.65;21.35;;;6.20;99.90;;;;;;4979126;28;20047;-62
2021/05/19 02:32:25;;;;;;;39.92;23.67;;;6.20;99.90;;;;;;4985697;28;20054;-61
2021/05/19 02:34:51;;;;;;;33.35;22.73;;;6.30;99.90;;;;;;4984814;28;20073;-61
2021/05/19 02:37:17;;;;;;;34.33;21.42;;;6.30;99.90;;;;;;4984991;28;20063;-61
2021/05/19 02:39:43;;;;;;;39.67;21.83;;;6.30;99.90;;;;;;4984544;28;20050;-61
2021/05/19 02:42:09;;;;;;;34.78;22.15;;;6.40;99.90;;;;;;4985529;28;20053;-62
2021/05/19 02:44:35;;;;;;;37.15;20.48;;;6.60;99.90;;;;;;4985521;28;20098;-61
2021/05/19 02:47:01;;;;;;;34.78;22.80;;;6.80;99.90;;;;;;4982087;28;20043;-61
2021/05/19 02:49:27;;;;;;;28.42;18.65;;;7.00;99.90;;;;;;5000212;28;20047;-61
2021/05/19 02:51:53;;;;;;;29.60;19.20;;;7.10;99.90;;;;;;4984312;28;20043;-61
2021/05/19 02:54:19;;;;;;;38.15;21.17;;;7.00;99.90;;;;;;4980719;28;20043;-61
2021/05/19 02:56:45;;;;;;;35.13;18.70;;;7.10;99.90;;;;;;4985143;28;20115;-61
2021/05/19 02:59:10;;;;;;;24.20;17.05;;;7.10;99.90;;;;;;4985161;28;20049;-61
2021/05/19 03:01:36;;;;;;;30.83;18.55;;;7.10;99.90;;;;;;4984961;28;20046;-61
2021/05/19 03:04:04;;;;;;;32.20;16.05;;;7.20;99.90;;;;;;4977904;28;20067;-61
2021/05/19 03:06:33;;;;;;;27.33;15.43;;;7.30;99.90;;;;;;4985766;28;20105;-61
2021/05/19 03:09:00;;;;;;;25.95;15.55;;;7.30;99.90;;;;;;4997236;28;20070;-61
2021/05/19 03:11:26;;;;;;;24.70;16.40;;;7.30;99.90;;;;;;4985079;28;20038;-61
2021/05/19 03:13:52;;;;;;;29.30;15.45;;;7.30;99.90;;;;;;4980899;28;20042;-61
2021/05/19 03:16:18;;;;;;;28.40;14.40;;;7.30;99.90;;;;;;4984027;28;20046;-61
2021/05/19 03:18:45;;;;;;;25.60;15.68;;;7.30;99.90;;;;;;4980789;28;20100;-61
2021/05/19 03:21:11;;;;;;;24.52;14.38;;;7.40;99.90;;;;;;4984472;28;20140;-61
2021/05/19 03:23:37;;;;;;;22.08;15.10;;;7.50;99.90;;;;;;4980022;28;20053;-61
2021/05/19 03:26:03;;;;;;;25.40;14.48;;;7.60;99.90;;;;;;4984547;28;20066;-61
2021/05/19 03:28:31;;;;;;;21.98;14.18;;;7.60;99.90;;;;;;4984347;28;20070;-61
2021/05/19 03:30:58;;;;;;;22.30;14.13;;;7.70;99.90;;;;;;4983952;28;20050;-61
2021/05/19 03:33:24;;;;;;;19.50;14.10;;;7.80;99.90;;;;;;4979619;28;20047;-62
2021/05/19 03:35:50;;;;;;;24.98;14.55;;;7.70;99.90;;;;;;4984272;28;20057;-61
2021/05/19 03:38:16;;;;;;;25.10;16.13;;;7.70;99.90;;;;;;4984445;28;20039;-61
2021/05/19 03:40:42;;;;;;;20.42;14.30;;;7.80;99.90;;;;;;4976072;28;20045;-61
2021/05/19 03:43:09;;;;;;;20.60;15.10;;;7.80;99.90;;;;;;4979285;28;20047;-61
2021/05/19 03:45:35;;;;;;;24.58;14.48;;;7.90;99.90;;;;;;4981951;28;20138;-61
2021/05/19 03:48:02;;;;;;;22.15;14.65;;;8.60;99.90;;;;;;4983649;28;20051;-61
2021/05/19 03:50:29;;;;;;;20.25;13.40;;;7.90;99.90;;;;;;4983521;28;20054;-61
2021/05/19 03:53:00;;;;;;;28.15;14.90;;;7.90;99.90;;;;;;4983672;28;20047;-61
2021/05/19 03:55:26;;;;;;;18.80;14.60;;;7.90;99.90;;;;;;4983879;28;20093;-60
2021/05/19 03:57:52;;;;;;;24.90;13.90;;;7.90;99.90;;;;;;4984065;28;20110;-60
2021/05/19 04:00:22;;;;;;;20.55;14.15;;;7.80;99.90;;;;;;4981672;28;20051;-60
2021/05/19 04:02:49;;;;;;;26.63;15.93;;;7.80;99.90;;;;;;4970372;28;20058;-60
2021/05/19 04:05:23;;;;;;;22.42;15.73;;;7.80;99.90;;;;;;4983176;28;20070;-61
2021/05/19 04:07:50;;;;;;;18.42;14.40;;;7.80;99.90;;;;;;4979917;28;20054;-61
2021/05/19 04:10:16;;;;;;;23.55;15.38;;;7.70;99.90;;;;;;4974973;28;20047;-61
2021/05/19 04:12:42;;;;;;;20.73;15.25;;;7.70;99.90;;;;;;4984010;28;20043;-60
2021/05/19 04:15:08;;;;;;;24.70;16.05;;;7.70;99.90;;;;;;4982556;28;20109;-60
2021/05/19 04:17:34;;;;;;;22.83;16.40;;;7.70;99.90;;;;;;4984501;28;20110;-61
2021/05/19 04:20:00;;;;;;;25.55;16.02;;;7.70;99.90;;;;;;4987947;28;20057;-61
2021/05/19 04:22:26;;;;;;;30.25;16.80;;;7.70;99.90;;;;;;4984486;28;20050;-61
2021/05/19 04:24:51;;;;;;;26.98;17.02;;;7.70;99.90;;;;;;4987391;28;20049;-62
2021/05/19 04:27:17;;;;;;;28.88;18.70;;;7.70;99.90;;;;;;4983662;28;20418;-60
2021/05/19 04:29:43;;;;;;;25.33;16.10;;;7.60;99.90;;;;;;4977194;28;20570;-61
2021/05/19 04:32:11;;;;;;;24.55;16.67;;;7.70;99.90;;;;;;4986954;28;20045;-61
2021/05/19 04:34:38;;;;;;;22.83;16.35;;;7.70;99.90;;;;;;4987236;28;20070;-61
2021/05/19 04:37:06;;;;;;;23.13;16.15;;;7.80;99.90;;;;;;4986851;28;20528;-61
2021/05/19 04:39:32;;;;;;;29.15;15.23;;;7.90;99.90;;;;;;4978914;28;20054;-62
2021/05/19 04:41:58;;;;;;;22.60;16.20;;;8.00;99.90;;;;;;4986130;28;20050;-61
2021/05/19 04:44:25;;;;;;;22.95;15.63;;;8.10;99.90;;;;;;4986611;28;20057;-61
2021/05/19 04:46:51;;;;;;;18.40;14.63;;;8.30;99.90;;;;;;4985978;28;20046;-61
2021/05/19 04:49:17;;;;;;;19.42;15.38;;;8.30;99.90;;;;;;4986486;28;20046;-61
2021/05/19 04:51:43;;;;;;;23.83;15.93;;;8.40;99.90;;;;;;4987213;28;20379;-61
2021/05/19 04:54:09;;;;;;;23.73;15.35;;;8.40;99.90;;;;;;4986691;28;20049;-61
2021/05/19 04:56:36;;;;;;;23.60;15.98;;;8.50;99.90;;;;;;4987065;28;20125;-61
2021/05/19 04:59:02;;;;;;;19.23;15.43;;;8.50;99.90;;;;;;4986286;28;20483;-61
2021/05/19 05:01:28;;;;;;;20.75;16.00;;;8.50;99.90;;;;;;4985988;28;20046;-61
2021/05/19 05:03:53;;;;;;;23.77;14.88;;;8.50;99.90;;;;;;4986631;28;20129;-61
2021/05/19 05:06:19;;;;;;;22.98;15.45;;;8.60;99.90;;;;;;4986541;28;20189;-61
2021/05/19 05:08:45;;;;;;;23.02;14.70;;;8.60;99.90;;;;;;4984973;28;20050;-61
2021/05/19 05:11:11;;;;;;;29.20;16.67;;;8.60;99.90;;;;;;4978407;28;20043;-62
2021/05/19 05:13:36;;;;;;;21.85;13.98;;;8.60;99.90;;;;;;4986818;28;20470;-61
2021/05/19 05:16:02;;;;;;;17.42;14.15;;;8.60;99.90;;;;;;4986018;28;20102;-61
2021/05/19 05:18:37;;;;;;;19.63;15.43;;;8.70;99.90;;;;;;4984113;28;20057;-61
2021/05/19 05:21:04;;;;;;;21.80;14.73;;;8.80;99.90;;;;;;4986234;28;20042;-62
2021/05/19 05:23:31;;;;;;;22.70;15.95;;;8.80;99.90;;;;;;4985829;28;20057;-61
2021/05/19 05:25:57;;;;;;;20.75;15.02;;;8.90;99.90;;;;;;4985637;28;20054;-61
2021/05/19 05:28:23;;;;;;;19.23;15.18;;;8.90;99.90;;;;;;4986067;28;20050;-61
2021/05/19 05:30:52;;;;;;;21.75;15.07;;;8.90;99.90;;;;;;4976607;28;20042;-61
2021/05/19 05:33:18;;;;;;;22.05;15.00;;;8.90;99.90;;;;;;4985704;28;20114;-62
2021/05/19 05:35:44;;;;;;;21.60;14.95;;;8.90;99.90;;;;;;4984557;28;20085;-62
2021/05/19 05:38:10;;;;;;;26.38;15.68;;;8.90;99.90;;;;;;4984317;28;20141;-61
2021/05/19 05:40:35;;;;;;;21.67;14.98;;;8.90;99.90;;;;;;4983061;28;20468;-61
2021/05/19 05:43:02;;;;;;;21.08;14.63;;;9.00;99.90;;;;;;4984677;28;20070;-62
2021/05/19 05:45:28;;;;;;;18.80;13.77;;;9.00;99.90;;;;;;4978361;28;20047;-62
2021/05/19 05:47:55;;;;;;;18.98;13.02;;;9.10;99.90;;;;;;4983683;28;20066;-61
2021/05/19 05:50:21;;;;;;;20.88;15.15;;;9.10;99.90;;;;;;4978691;28;20051;-61
2021/05/19 05:52:47;;;;;;;17.35;13.05;;;9.20;99.90;;;;;;4982590;28;20676;-61
2021/05/19 05:55:13;;;;;;;19.30;12.93;;;9.20;99.90;;;;;;4985442;28;20057;-62
2021/05/19 05:57:39;;;;;;;18.85;14.15;;;9.30;99.90;;;;;;4985027;28;20062;-61
2021/05/19 06:00:08;;;;;;;15.43;12.27;;;9.30;99.90;;;;;;4986273;28;20043;-61
2021/05/19 06:02:33;;;;;;;18.77;13.13;;;9.40;99.90;;;;;;4984944;28;20467;-61
2021/05/19 06:04:59;;;;;;;17.08;12.43;;;9.40;99.90;;;;;;4972172;28;20061;-62
2021/05/19 06:07:25;;;;;;;17.75;11.88;;;9.50;99.90;;;;;;4978410;28;20046;-61
2021/05/19 06:09:52;;;;;;;15.98;12.35;;;9.70;99.90;;;;;;4976702;28;20127;-61
2021/05/19 06:12:19;;;;;;;20.27;12.88;;;10.00;99.90;;;;;;4981541;28;20062;-61
2021/05/19 06:14:45;;;;;;;18.38;12.32;;;10.40;99.90;;;;;;4984235;28;20042;-61
2021/05/19 06:17:12;;;;;;;20.15;10.77;;;10.70;99.90;;;;;;4984043;28;20042;-60
2021/05/19 06:19:39;;;;;;;;;;;10.80;99.90;;;;;;4996181;28;20043;-61
2021/05/19 06:22:05;;;;;;;16.58;12.02;;;10.80;99.90;;;;;;4981599;28;19922;-62
2021/05/19 06:24:30;;;;;;;15.48;11.50;;;10.70;99.90;;;;;;4983066;28;20050;-61
2021/05/19 06:26:56;;;;;;;18.25;11.68;;;10.70;99.90;;;;;;4984231;28;20047;-61
2021/05/19 06:29:22;;;;;;;14.38;11.07;;;10.80;99.90;;;;;;4984433;28;20438;-61
2021/05/19 06:31:48;;;;;;;17.20;11.63;;;11.00;99.90;;;;;;4984937;28;20054;-61
2021/05/19 06:34:13;;;;;;;16.52;11.00;;;11.20;99.90;;;;;;4978946;28;20047;-61
2021/05/19 06:36:44;;;;;;;15.25;11.10;;;11.40;99.90;;;;;;4995798;28;20043;-61
2021/05/19 06:39:09;;;;;;;16.30;11.90;;;11.60;99.90;;;;;;4983647;28;20051;-62
2021/05/19 06:41:35;;;;;;;17.33;11.68;;;11.30;99.90;;;;;;4967277;28;20047;-62
2021/05/19 06:44:01;;;;;;;19.05;12.98;;;11.20;99.90;;;;;;4974160;28;20047;-61
2021/05/19 06:46:27;;;;;;;16.15;12.00;;;11.00;99.90;;;;;;4984796;28;20046;-61
2021/05/19 06:48:53;;;;;;;18.38;13.00;;;11.00;99.90;;;;;;4985433;28;20046;-61
2021/05/19 06:51:19;;;;;;;18.63;12.00;;;11.10;99.90;;;;;;4982058;28;20042;-61
2021/05/19 06:53:45;;;;;;;19.58;13.05;;;11.10;99.90;;;;;;4977266;28;20047;-61
2021/05/19 06:56:12;;;;;;;17.52;13.30;;;11.20;99.90;;;;;;4984518;28;20395;-61
2021/05/19 06:58:38;;;;;;;16.15;13.50;;;11.30;99.90;;;;;;4982354;28;20070;-61
2021/05/19 07:01:03;;;;;;;17.05;13.75;;;11.30;99.90;;;;;;4978231;28;20054;-61
2021/05/19 07:03:32;;;;;;;22.15;14.88;;;11.50;99.90;;;;;;4987107;28;20046;-61
2021/05/19 07:05:58;;;;;;;19.85;13.00;;;11.60;99.90;;;;;;4976082;28;20063;-61
2021/05/19 07:08:24;;;;;;;21.55;13.15;;;11.70;99.90;;;;;;4980458;28;20418;-61
2021/05/19 07:10:50;;;;;;;27.13;14.88;;;11.80;99.90;;;;;;4977125;28;20054;-62
2021/05/19 07:13:18;;;;;;;18.67;13.10;;;11.70;99.90;;;;;;4981773;28;20039;-61
2021/05/19 07:15:46;;;;;;;23.17;16.15;;;11.80;99.90;;;;;;4979494;28;20464;-61
2021/05/19 07:18:14;;;;;;;18.20;14.73;;;11.80;99.90;;;;;;4981728;28;20068;-61
2021/05/19 07:20:40;;;;;;;19.98;13.75;;;12.00;99.90;;;;;;4980160;28;20043;-62
2021/05/19 07:23:06;;;;;;;17.73;13.68;;;12.00;99.90;;;;;;4984909;28;20576;-62
2021/05/19 07:25:32;;;;;;;22.33;14.10;;;12.10;99.90;;;;;;4983402;28;20039;-63
2021/05/19 07:27:58;;;;;;;17.23;13.43;;;12.10;99.90;;;;;;4979827;28;20038;-63
2021/05/19 07:30:24;;;;;;;17.90;13.40;;;12.20;99.90;;;;;;4980201;28;20121;-64
2021/05/19 07:32:50;;;;;;;23.92;13.40;;;12.20;99.90;;;;;;4981979;28;20043;-62
2021/05/19 07:35:16;;;;;;;16.42;12.57;;;12.50;99.90;;;;;;4980647;28;20153;-62
2021/05/19 07:37:42;;;;;;;18.73;12.93;;;12.60;99.90;;;;;;4981346;28;20043;-62
2021/05/19 07:40:08;;;;;;;20.27;13.95;;;12.60;99.90;;;;;;4976977;28;20064;-71
2021/05/19 07:42:34;;;;;;;18.30;13.35;;;12.90;99.90;;;;;;4974785;28;20066;-63
2021/05/19 07:45:00;;;;;;;19.75;14.73;;;12.80;99.90;;;;;;4982648;28;20042;-65
2021/05/19 07:47:26;;;;;;;18.42;14.82;;;12.90;99.90;;;;;;4983315;28;20054;-64
2021/05/19 07:49:52;;;;;;;22.27;15.60;;;12.80;99.90;;;;;;4983506;28;20102;-64
2021/05/19 07:52:19;;;;;;;22.23;14.82;;;12.70;99.90;;;;;;4982073;28;20046;-65
2021/05/19 07:54:47;;;;;;;22.77;15.98;;;12.60;99.90;;;;;;4982844;28;20038;-64
2021/05/19 07:57:18;;;;;;;27.88;18.35;;;12.60;99.90;;;;;;4982884;28;20043;-65
2021/05/19 07:59:46;;;;;;;24.33;18.67;;;12.60;99.90;;;;;;4983430;28;20133;-65
2021/05/19 08:02:13;;;;;;;26.88;20.10;;;12.70;99.90;;;;;;4983374;28;20039;-65
2021/05/19 08:04:39;;;;;;;26.48;19.65;;;12.70;99.90;;;;;;4983685;28;20050;-65
2021/05/19 08:07:06;;;;;;;26.33;18.27;;;12.60;99.90;;;;;;4984405;28;20046;-65
2021/05/19 08:09:33;;;;;;;29.75;19.42;;;12.70;99.90;;;;;;4984106;28;20092;-65
2021/05/19 08:11:59;;;;;;;25.90;20.73;;;12.80;99.90;;;;;;4984258;28;20047;-65
2021/05/19 08:14:27;;;;;;;26.13;20.20;;;12.80;99.90;;;;;;4982865;28;20118;-65
2021/05/19 08:16:54;;;;;;;24.58;19.75;;;12.90;99.90;;;;;;4981263;28;20058;-65
2021/05/19 08:19:20;;;;;;;28.13;20.05;;;13.00;99.90;;;;;;4978099;28;20097;-65
2021/05/19 08:21:45;;;;;;;26.90;20.20;;;13.20;99.90;;;;;;4981580;28;20088;-65
2021/05/19 08:24:12;;;;;;;26.75;19.17;;;13.50;99.90;;;;;;4984719;28;20513;-65
2021/05/19 08:26:37;;;;;;;28.15;19.58;;;13.60;99.90;;;;;;4978425;28;20062;-65
2021/05/19 08:29:04;;;;;;;28.30;18.23;;;13.70;99.90;;;;;;4983063;28;20046;-65
2021/05/19 08:31:30;;;;;;;25.20;18.03;;;13.90;99.90;;;;;;4981921;28;20035;-64
2021/05/19 08:33:57;;;;;;;21.30;16.52;;;14.00;99.90;;;;;;4980908;28;20328;-63
2021/05/19 08:36:24;;;;;;;26.20;17.20;;;14.10;99.90;;;;;;4982592;28;20047;-62
2021/05/19 08:38:51;;;;;;;23.20;18.95;;;14.20;99.90;;;;;;4981928;28;20128;-63
2021/05/19 08:41:17;;;;;;;21.08;16.23;;;14.20;99.90;;;;;;4978730;28;20039;-64
2021/05/19 08:43:44;;;;;;;24.13;16.10;;;14.30;99.90;;;;;;4981911;28;20517;-63
2021/05/19 08:46:10;;;;;;;23.15;16.85;;;14.40;99.90;;;;;;4983140;28;20082;-63
2021/05/19 08:48:39;;;;;;;19.92;14.45;;;14.60;99.90;;;;;;4996769;28;20039;-62
2021/05/19 08:51:05;;;;;;;17.35;14.10;;;14.70;99.90;;;;;;4982600;28;20055;-63
2021/05/19 08:53:32;;;;;;;17.38;14.63;;;14.90;99.90;;;;;;4979072;28;20599;-62
2021/05/19 08:55:59;;;;;;;20.60;13.40;;;14.70;99.90;;;;;;4982315;28;20106;-63
2021/05/19 08:58:25;;;;;;;13.07;11.75;;;14.70;99.90;;;;;;4981254;28;20039;-77
2021/05/19 09:00:51;;;;;;;17.20;12.75;;;14.80;99.90;;;;;;4983731;28;20043;-62
2021/05/19 09:03:18;;;;;;;18.30;12.07;;;14.90;99.90;;;;;;4986627;28;20046;-64
2021/05/19 09:05:49;;;;;;;15.07;11.38;;;14.80;99.90;;;;;;4984764;28;20082;-63
2021/05/19 09:08:17;;;;;;;16.35;12.13;;;14.70;99.90;;;;;;4984270;28;20039;-69
2021/05/19 09:10:55;;;;;;;11.43;8.25;;;15.00;99.90;;;;;;4985671;28;20043;-72
2021/05/19 09:13:35;;;;;;;11.07;7.07;;;14.90;99.90;;;;;;4981834;28;20042;-62
2021/05/19 09:16:05;;;;;;;12.68;8.75;;;15.10;99.90;;;;;;4983766;28;20054;-61
2021/05/19 09:18:51;;;;;;;14.20;8.88;;;15.30;99.90;;;;;;4985938;28;20039;-61
2021/05/19 09:21:43;;;;;;;16.90;9.45;;;15.40;99.90;;;;;;4985247;28;20058;-62
2021/05/19 09:24:21;;;;;;;11.82;8.40;;;15.60;99.90;;;;;;4984667;28;20070;-63
2021/05/19 09:26:51;;;;;;;15.35;9.93;;;15.60;99.90;;;;;;4983315;28;20065;-72
2021/05/19 09:29:20;;;;;;;12.23;10.00;;;15.80;99.90;;;;;;4983142;28;20050;-62
2021/05/19 09:31:51;;;;;;;11.02;8.88;;;15.70;99.90;;;;;;4985342;28;20073;-75
2021/05/19 09:34:25;;;;;;;10.48;8.95;;;15.60;99.90;;;;;;4982606;28;20039;-70
2021/05/19 09:36:51;;;;;;;10.80;9.63;;;15.60;99.90;;;;;;4981327;28;20051;-65
2021/05/19 09:39:17;;;;;;;10.95;9.57;;;15.80;99.90;;;;;;4986928;28;20035;-63
2021/05/19 09:41:43;;;;;;;16.70;11.48;;;15.40;99.90;;;;;;4986451;28;20114;-63
2021/05/19 09:44:11;;;;;;;16.23;12.43;;;15.40;99.90;;;;;;4985876;28;20043;-64
2021/05/19 09:46:45;;;;;;;22.42;14.88;;;15.50;99.90;;;;;;4985030;28;20407;-63
2021/05/19 09:49:21;;;;;;;9.93;7.75;;;15.40;99.90;;;;;;4982800;28;20039;-62
2021/05/19 09:51:58;;;;;;;10.38;4.70;;;14.70;99.90;;;;;;4983365;28;20042;-62
2021/05/19 09:54:29;;;;;;;6.57;3.83;;;13.80;99.90;;;;;;4981851;28;20050;-68
2021/05/19 09:56:56;;;;;;;2.67;1.80;;;12.90;99.90;;;;;;4981284;28;20050;-67
2021/05/19 09:59:23;;;;;;;5.72;2.08;;;12.30;99.90;;;;;;4985620;28;20046;-70
2021/05/19 10:01:50;;;;;;;6.63;2.45;;;11.90;99.90;;;;;;4984541;28;20055;-76
2021/05/19 10:04:19;;;;;;;4.00;1.85;;;11.70;99.90;;;;;;4985282;28;20133;-72
2021/05/19 10:06:46;;;;;;;1.45;1.10;;;11.40;99.90;;;;;;4982976;28;20054;-71
2021/05/19 10:09:12;;;;;;;1.40;0.90;;;11.40;99.90;;;;;;4983104;28;20464;-67
2021/05/19 10:11:38;;;;;;;4.25;1.40;;;11.50;99.90;;;;;;4982864;28;20070;-73
2021/05/19 10:14:09;;;;;;;2.22;1.42;;;11.80;99.90;;;;;;4984716;28;20098;-74
2021/05/19 10:16:35;;;;;;;5.05;1.35;;;12.20;99.90;;;;;;4980757;28;20062;-67
2021/05/19 10:19:02;;;;;;;3.58;1.35;;;12.40;99.90;;;;;;4980596;28;20043;-67
2021/05/19 10:21:34;;;;;;;1.92;0.90;;;12.60;99.90;;;;;;4983300;28;20042;-66
2021/05/19 10:24:05;;;;;;;1.88;1.50;;;12.70;99.90;;;;;;4981656;28;20053;-67
2021/05/19 10:26:52;;;;;;;3.28;1.10;;;12.70;99.90;;;;;;4984152;28;20053;-68
2021/05/19 10:29:47;;;;;;;4.00;2.00;;;12.50;99.90;;;;;;4985328;28;20043;-74
2021/05/19 10:32:22;;;;;;;4.57;2.28;;;12.80;99.90;;;;;;4981725;28;20038;-75
2021/05/19 10:35:08;;;;;;;8.20;6.10;;;13.00;99.90;;;;;;4982331;28;20085;-65
2021/05/19 10:37:42;;;;;;;9.18;6.38;;;13.20;99.90;;;;;;4982783;28;20439;-77
2021/05/19 10:40:07;;;;;;;12.80;6.50;;;13.50;99.90;;;;;;4983519;28;20043;-74
2021/05/19 10:42:41;;;;;;;6.60;4.72;;;13.80;99.90;;;;;;4981688;28;20046;-72
2021/05/19 10:45:15;;;;;;;5.50;3.80;;;14.00;99.90;;;;;;4978993;28;20106;-61
2021/05/19 10:47:46;;;;;;;9.35;5.75;;;14.20;99.90;;;;;;4983489;28;20129;-61
2021/05/19 10:58:53;;;;;;;5.00;4.28;;;15.00;99.90;;;;;;4982512;28;20078;-64
2021/05/19 11:01:40;;;;;;;4.63;3.80;;;15.20;99.90;;;;;;4983365;28;20043;-65
2021/05/19 11:04:21;;;;;;;5.80;4.22;;;15.80;99.90;;;;;;4983036;28;20045;-64
2021/05/19 11:07:05;;;;;;;4.30;3.42;;;16.20;99.90;;;;;;4980113;28;20538;-62
2021/05/19 11:09:32;;;;;;;4.70;3.08;;;16.60;99.90;;;;;;4978490;28;20043;-62
2021/05/19 11:12:17;;;;;;;2.83;2.25;;;16.50;99.90;;;;;;4983706;28;20038;-65
2021/05/19 11:14:47;;;;;;;6.88;3.42;;;16.30;99.90;;;;;;4981456;28;20054;-63
2021/05/19 11:17:19;;;;;;;17.85;6.80;;;15.90;99.90;;;;;;4983008;28;20078;-67
2021/05/19 11:19:45;;;;;;;5.63;4.15;;;15.00;99.90;;;;;;4981661;28;20070;-62
2021/05/19 11:22:15;;;;;;;11.55;5.60;;;12.90;99.90;;;;;;4983071;28;20051;-62
2021/05/19 11:24:58;;;;;;;14.77;7.53;;;12.10;99.90;;;;;;4980268;28;20611;-68
2021/05/19 11:27:26;;;;;;;13.38;8.77;;;11.50;99.90;;;;;;4982268;28;20047;-68
2021/05/19 11:29:53;;;;;;;12.52;7.05;;;11.20;99.90;;;;;;4981122;28;20046;-68
2021/05/19 11:32:21;;;;;;;10.35;7.28;;;11.20;99.90;;;;;;4979083;28;20058;-66
2021/05/19 11:34:48;;;;;;;16.23;10.63;;;11.10;99.90;;;;;;4981598;28;20054;-67
2021/05/19 11:37:15;;;;;;;11.48;9.60;;;11.10;99.90;;;;;;4983375;28;20046;-67
2021/05/19 11:39:46;;;;;;;10.50;8.38;;;11.10;99.90;;;;;;4981723;28;20046;-64
2021/05/19 11:42:18;;;;;;;14.70;10.90;;;11.10;99.90;;;;;;4982166;28;20066;-63
2021/05/19 11:44:53;;;;;;;12.20;10.00;;;11.10;99.90;;;;;;4975099;28;20054;-63
2021/05/19 11:47:28;;;;;;;10.57;8.38;;;11.30;99.90;;;;;;4976946;28;20057;-63
2021/05/19 11:50:04;;;;;;;10.55;8.38;;;11.40;99.90;;;;;;4981695;28;20078;-63
2021/05/19 11:52:47;;;;;;;11.00;9.13;;;11.40;99.90;;;;;;4975782;28;20075;-63
2021/05/19 11:55:26;;;;;;;9.02;7.68;;;11.30;99.90;;;;;;4980136;28;20047;-63
2021/05/19 11:58:01;;;;;;;10.02;7.00;;;10.80;99.90;;;;;;4982832;28;20109;-63
2021/05/19 12:00:38;;;;;;;12.93;9.32;;;10.80;99.90;;;;;;4981472;28;20073;-63
2021/05/19 12:03:06;;;;;;;15.73;7.60;;;10.90;99.90;;;;;;4983600;28;20051;-63
2021/05/19 12:05:43;;;;;;;20.55;9.95;;;10.70;99.90;;;;;;5004081;28;20092;-63
2021/05/19 12:08:09;;;;;;;10.02;7.80;;;10.60;99.90;;;;;;4982581;28;20430;-64
2021/05/19 12:10:35;;;;;;;12.13;8.95;;;10.70;99.90;;;;;;4982909;28;20102;-64
2021/05/19 12:13:03;;;;;;;14.07;8.70;;;10.70;99.90;;;;;;4979775;28;20046;-63
2021/05/19 12:15:34;;;;;;;14.18;8.80;;;10.80;99.90;;;;;;4980975;28;20054;-63
2021/05/19 12:18:03;;;;;;;11.18;9.05;;;10.90;99.90;;;;;;4980653;28;20038;-63
2021/05/19 12:20:29;;;;;;;10.23;8.05;;;10.70;99.90;;;;;;4981867;28;20059;-64
2021/05/19 12:22:56;;;;;;;8.57;5.82;;;11.20;99.90;;;;;;4978692;28;20051;-63
2021/05/19 12:25:21;;;;;;;10.10;7.30;;;10.60;99.90;;;;;;4979100;28;20047;-63
2021/05/19 12:27:52;;;;;;;9.02;8.13;;;10.60;99.90;;;;;;4980923;28;20049;-63
2021/05/19 12:30:19;;;;;;;12.98;7.72;;;10.90;99.90;;;;;;4979385;28;20070;-63
2021/05/19 12:32:56;;;;;;;10.40;9.30;;;10.80;99.90;;;;;;4981158;28;20475;-65
2021/05/19 12:35:24;;;;;;;11.10;9.25;;;10.80;99.90;;;;;;4983638;28;20130;-63
2021/05/19 12:38:07;;;;;;;11.40;8.82;;;11.00;99.90;;;;;;4982890;28;20043;-63
2021/05/19 12:40:33;;;;;;;11.63;10.05;;;11.00;99.90;;;;;;4984539;28;20047;-62
2021/05/19 12:43:07;;;;;;;12.93;11.57;;;10.90;99.90;;;;;;4984232;28;20046;-62
2021/05/19 12:45:43;;;;;;;18.05;12.80;;;10.90;99.90;;;;;;4987296;28;20046;-62
2021/05/19 12:48:17;;;;;;;11.82;10.32;;;10.90;99.90;;;;;;4978631;28;20070;-63
2021/05/19 12:50:52;;;;;;;17.08;10.60;;;10.90;99.90;;;;;;4987236;28;20054;-62